Time;durP1;ratioP1;P1;durP2;ratioP2;P2;SDS_P1;SDS_P2;PMS_P1;PMS_P2;Temp;Humidity;BMP_temperature;BMP_pressure;BME280_temperature;BME280_humidity;BME280_pressure;Samples;Min_cycle;Max_cycle;Signal;HPM_P1;HPM_P2
2021/07/01 00:01:36;;;;;;;0.17;0.17;;;18.40;76.40;;;;;;5050927;28;20091;-64
2021/07/01 00:04:03;;;;;;;0.10;0.10;;;18.30;76.30;;;;;;5051969;28;20139;-64
2021/07/01 00:06:29;;;;;;;0.28;0.28;;;18.30;76.40;;;;;;5051911;28;20128;-64
2021/07/01 00:08:55;;;;;;;0.10;0.10;;;18.30;76.50;;;;;;5051827;28;20166;-64
2021/07/01 00:11:21;;;;;;;0.20;0.20;;;18.30;76.60;;;;;;5051802;28;20175;-64
2021/07/01 00:13:48;;;;;;;0.20;0.20;;;18.20;76.50;;;;;;5051771;28;20103;-64
2021/07/01 00:16:14;;;;;;;0.20;0.20;;;18.30;76.60;;;;;;5051287;28;20056;-64
2021/07/01 00:18:41;;;;;;;0.20;0.20;;;18.20;76.70;;;;;;5049936;28;20145;-64
2021/07/01 00:21:07;;;;;;;0.10;0.10;;;18.20;76.70;;;;;;5051488;28;20089;-64
2021/07/01 00:23:33;;;;;;;0.20;0.20;;;18.20;76.70;;;;;;5051341;28;20140;-64
2021/07/01 00:25:59;;;;;;;0.10;0.10;;;18.20;76.70;;;;;;5051538;28;20049;-64
2021/07/01 00:28:26;;;;;;;0.20;0.20;;;18.20;76.70;;;;;;5051445;28;20516;-64
2021/07/01 00:30:52;;;;;;;0.20;0.20;;;18.20;76.70;;;;;;5051299;28;20044;-64
2021/07/01 00:33:18;;;;;;;0.30;0.20;;;18.20;76.70;;;;;;5051882;28;20126;-64
2021/07/01 00:35:45;;;;;;;0.10;0.10;;;18.20;76.80;;;;;;5051633;28;20045;-64
2021/07/01 00:38:11;;;;;;;0.20;0.20;;;18.10;76.80;;;;;;5051211;28;20053;-64
2021/07/01 00:40:37;;;;;;;0.25;0.25;;;18.10;76.80;;;;;;5051464;28;20056;-64
2021/07/01 00:43:03;;;;;;;0.20;0.20;;;18.10;76.90;;;;;;5049681;28;20090;-64
2021/07/01 00:45:30;;;;;;;0.20;0.20;;;18.10;77.80;;;;;;5040304;28;20067;-64
2021/07/01 00:47:56;;;;;;;0.30;0.30;;;18.10;77.00;;;;;;5051606;28;20199;-64
2021/07/01 00:50:24;;;;;;;0.40;0.30;;;18.10;77.00;;;;;;5051450;28;20081;-64
2021/07/01 00:52:50;;;;;;;0.20;0.20;;;18.10;77.00;;;;;;5054606;28;20106;-64
2021/07/01 00:55:17;;;;;;;0.30;0.30;;;18.10;77.00;;;;;;5054917;28;20120;-64
2021/07/01 00:57:44;;;;;;;0.30;0.30;;;18.10;77.10;;;;;;5055268;28;20118;-64
2021/07/01 01:00:43;;;;;;;0.10;0.10;;;18.10;77.10;;;;;;5054872;28;20148;-64
2021/07/01 01:03:10;;;;;;;0.40;0.40;;;18.10;77.10;;;;;;5055082;28;20053;-64
2021/07/01 01:05:39;;;;;;;0.20;0.20;;;18.10;77.10;;;;;;5055000;28;20084;-64
2021/07/01 01:08:08;;;;;;;0.30;0.30;;;18.10;77.20;;;;;;5054772;28;20080;-64
2021/07/01 01:10:37;;;;;;;0.30;0.30;;;18.10;77.30;;;;;;5054525;28;20056;-64
2021/07/01 01:13:04;;;;;;;0.25;0.25;;;18.10;77.30;;;;;;5054709;28;20049;-65
2021/07/01 01:15:30;;;;;;;0.35;0.30;;;18.10;77.30;;;;;;5054347;28;20132;-64
2021/07/01 01:17:57;;;;;;;0.20;0.20;;;18.10;77.30;;;;;;5050157;28;20041;-64
2021/07/01 01:20:23;;;;;;;0.40;0.40;;;18.10;77.30;;;;;;5047203;28;20049;-64
2021/07/01 01:22:49;;;;;;;0.20;0.20;;;18.10;77.30;;;;;;5052502;28;20076;-64
2021/07/01 01:25:15;;;;;;;0.20;0.20;;;18.10;77.40;;;;;;5054415;28;20053;-64
2021/07/01 01:27:42;;;;;;;0.30;0.30;;;18.10;77.40;;;;;;5052003;28;20045;-64
2021/07/01 01:30:09;;;;;;;0.30;0.30;;;18.10;77.40;;;;;;5054053;28;20225;-64
2021/07/01 01:32:37;;;;;;;0.20;0.20;;;18.10;77.40;;;;;;5053705;28;20049;-64
2021/07/01 01:35:04;;;;;;;0.30;0.30;;;18.00;77.40;;;;;;5054550;28;20052;-64
2021/07/01 01:37:30;;;;;;;0.20;0.20;;;18.00;77.30;;;;;;5054369;28;20053;-64
2021/07/01 01:39:56;;;;;;;0.30;0.30;;;18.00;77.30;;;;;;5054311;28;20432;-64
2021/07/01 01:42:23;;;;;;;0.30;0.30;;;18.00;77.30;;;;;;5054201;28;20048;-64
2021/07/01 01:44:49;;;;;;;0.20;0.20;;;18.00;77.40;;;;;;5053998;28;20041;-64
2021/07/01 01:47:17;;;;;;;0.22;0.20;;;18.00;77.40;;;;;;5053825;28;20128;-64
2021/07/01 01:49:47;;;;;;;0.40;0.40;;;17.90;77.40;;;;;;5052358;28;20104;-64
2021/07/01 01:52:14;;;;;;;0.30;0.30;;;17.90;77.40;;;;;;5052797;28;20049;-64
2021/07/01 01:54:41;;;;;;;0.22;0.20;;;17.90;77.50;;;;;;5053748;28;20537;-64
2021/07/01 01:57:08;;;;;;;0.25;0.25;;;17.90;77.50;;;;;;5054115;28;20049;-64
2021/07/01 01:59:34;;;;;;;0.20;0.20;;;17.90;77.50;;;;;;5053801;28;20103;-64
2021/07/01 02:02:01;;;;;;;0.25;0.25;;;17.90;77.60;;;;;;5053005;28;20049;-64
2021/07/01 02:04:27;;;;;;;0.30;0.30;;;17.90;77.60;;;;;;5054072;28;20048;-64
2021/07/01 02:06:55;;;;;;;0.22;0.22;;;17.80;77.60;;;;;;5032158;28;20049;-64
2021/07/01 02:09:22;;;;;;;0.30;0.30;;;17.80;77.60;;;;;;5044065;28;20094;-64
2021/07/01 02:11:49;;;;;;;0.50;0.30;;;17.80;77.70;;;;;;5053212;28;20552;-64
2021/07/01 02:14:19;;;;;;;0.20;0.20;;;17.80;77.70;;;;;;5042939;28;20136;-64
2021/07/01 02:16:45;;;;;;;0.40;0.40;;;17.70;77.70;;;;;;5052676;28;20131;-64
2021/07/01 02:19:12;;;;;;;0.30;0.30;;;17.70;77.70;;;;;;5053058;28;20460;-64
2021/07/01 02:21:38;;;;;;;0.20;0.20;;;17.70;77.70;;;;;;5053197;28;20097;-64
2021/07/01 02:24:04;;;;;;;0.30;0.22;;;17.60;77.70;;;;;;5053359;28;20168;-64
2021/07/01 02:26:31;;;;;;;0.20;0.20;;;17.60;77.60;;;;;;5053280;28;20048;-64
2021/07/01 02:28:57;;;;;;;0.30;0.30;;;17.60;77.60;;;;;;5053132;28;20132;-64
2021/07/01 02:31:23;;;;;;;0.10;0.10;;;17.50;77.60;;;;;;5038360;28;20049;-64
2021/07/01 02:33:49;;;;;;;0.20;0.20;;;17.50;77.60;;;;;;5048307;28;20154;-64
2021/07/01 02:36:16;;;;;;;0.30;0.30;;;17.50;77.50;;;;;;5053154;28;20072;-64
2021/07/01 02:38:42;;;;;;;0.40;0.28;;;17.50;77.70;;;;;;5053274;28;20102;-64
2021/07/01 02:41:08;;;;;;;0.20;0.20;;;17.40;77.80;;;;;;5052691;28;20114;-64
2021/07/01 02:43:34;;;;;;;0.20;0.20;;;17.40;77.90;;;;;;5035005;28;20622;-64
2021/07/01 02:46:01;;;;;;;0.10;0.10;;;17.40;78.00;;;;;;5052427;28;20072;-64
2021/07/01 02:48:27;;;;;;;0.17;0.17;;;17.30;78.10;;;;;;5057124;28;20045;-64
2021/07/01 02:50:53;;;;;;;0.20;0.20;;;17.30;78.20;;;;;;5048091;28;20121;-64
2021/07/01 02:53:20;;;;;;;0.40;0.22;;;17.20;78.40;;;;;;5052903;28;20076;-64
2021/07/01 02:55:46;;;;;;;0.25;0.25;;;17.20;78.60;;;;;;5052878;28;20496;-64
2021/07/01 02:58:12;;;;;;;0.17;0.17;;;17.20;78.80;;;;;;5052665;28;20084;-64
2021/07/01 03:00:39;;;;;;;0.10;0.10;;;17.20;79.90;;;;;;5052765;28;20170;-64
2021/07/01 03:03:05;;;;;;;0.20;0.20;;;17.20;79.00;;;;;;5052634;28;20186;-64
2021/07/01 03:05:31;;;;;;;0.20;0.20;;;17.20;80.00;;;;;;5053064;28;20190;-64
2021/07/01 03:07:58;;;;;;;0.20;0.20;;;17.20;79.10;;;;;;5052417;28;20095;-64
2021/07/01 03:10:24;;;;;;;0.10;0.10;;;17.20;79.30;;;;;;5052583;28;20506;-64
2021/07/01 03:12:50;;;;;;;0.00;0.00;;;17.10;79.40;;;;;;5052510;28;20190;-64
2021/07/01 03:15:17;;;;;;;0.00;0.00;;;17.20;79.40;;;;;;5051088;28;20045;-64
2021/07/01 03:17:43;;;;;;;0.10;0.10;;;17.10;79.40;;;;;;5052393;28;20044;-64
2021/07/01 03:20:10;;;;;;;0.10;0.10;;;17.10;79.40;;;;;;5052395;28;20045;-64
2021/07/01 03:22:36;;;;;;;0.08;0.08;;;17.10;79.40;;;;;;5052472;28;20048;-64
2021/07/01 03:25:03;;;;;;;0.10;0.10;;;17.10;79.40;;;;;;5052245;28;20131;-64
2021/07/01 03:27:29;;;;;;;0.10;0.10;;;17.00;79.40;;;;;;5045001;28;20076;-64
2021/07/01 03:29:55;;;;;;;0.10;0.10;;;17.00;79.40;;;;;;5046933;28;20111;-64
2021/07/01 03:32:22;;;;;;;0.20;0.20;;;17.00;79.40;;;;;;5052282;28;20060;-64
2021/07/01 03:34:48;;;;;;;0.10;0.10;;;17.00;79.30;;;;;;5051677;28;20536;-64
2021/07/01 03:37:14;;;;;;;0.10;0.10;;;16.90;80.20;;;;;;5051730;28;20151;-64
2021/07/01 03:39:41;;;;;;;0.08;0.08;;;16.90;79.40;;;;;;5051802;28;20053;-64
2021/07/01 03:42:07;;;;;;;0.10;0.10;;;16.90;79.50;;;;;;5052072;28;20131;-64
2021/07/01 03:44:36;;;;;;;0.10;0.10;;;16.90;79.40;;;;;;5052031;28;20048;-64
2021/07/01 03:47:02;;;;;;;0.00;0.00;;;16.90;79.40;;;;;;5051958;28;20044;-64
2021/07/01 03:49:28;;;;;;;0.00;0.00;;;16.90;79.30;;;;;;5052155;28;20489;-64
2021/07/01 03:51:55;;;;;;;0.00;0.00;;;16.90;79.20;;;;;;5052031;28;20128;-64
2021/07/01 03:54:21;;;;;;;0.00;0.00;;;16.90;79.00;;;;;;5051911;28;20154;-64
2021/07/01 03:56:47;;;;;;;0.00;0.00;;;16.90;78.90;;;;;;5051820;28;20130;-64
2021/07/01 03:59:15;;;;;;;0.10;0.10;;;16.80;78.80;;;;;;5051565;28;20608;-64
2021/07/01 04:01:42;;;;;;;0.10;0.10;;;16.80;78.80;;;;;;5041831;28;20156;-64
2021/07/01 04:04:08;;;;;;;0.10;0.10;;;16.80;78.80;;;;;;5049267;28;20091;-64
2021/07/01 04:06:35;;;;;;;0.10;0.10;;;16.80;79.00;;;;;;5044694;28;20127;-64
2021/07/01 04:09:03;;;;;;;0.13;0.13;;;16.70;79.20;;;;;;5052027;28;20515;-64
2021/07/01 04:11:29;;;;;;;0.22;0.15;;;16.70;79.30;;;;;;5051771;28;20041;-64
2021/07/01 04:13:56;;;;;;;0.08;0.08;;;16.70;79.60;;;;;;5050957;28;20858;-64
2021/07/01 04:16:22;;;;;;;0.10;0.10;;;16.60;79.70;;;;;;5048703;28;20106;-67
2021/07/01 04:18:48;;;;;;;0.45;0.20;;;16.60;80.00;;;;;;5051568;28;20821;-64
2021/07/01 04:21:15;;;;;;;1.13;0.40;;;16.60;80.10;;;;;;5051723;28;20060;-65
2021/07/01 04:23:41;;;;;;;0.15;0.15;;;16.50;80.30;;;;;;5051560;28;20056;-64
2021/07/01 04:26:07;;;;;;;0.20;0.20;;;16.50;80.50;;;;;;5053276;28;20055;-64
2021/07/01 04:28:34;;;;;;;0.20;0.20;;;16.60;80.70;;;;;;5053630;28;20144;-64
2021/07/01 04:31:01;;;;;;;1.02;0.30;;;16.60;80.70;;;;;;5055056;28;20178;-63
2021/07/01 04:33:28;;;;;;;0.20;0.20;;;16.60;80.90;;;;;;5054985;28;20045;-64
2021/07/01 04:35:56;;;;;;;0.40;0.40;;;16.60;80.70;;;;;;5053902;28;20163;-63
2021/07/01 04:38:22;;;;;;;0.28;0.28;;;16.60;80.60;;;;;;5054681;28;20460;-64
2021/07/01 04:40:48;;;;;;;0.52;0.40;;;16.70;80.50;;;;;;5054026;28;20180;-63
2021/07/01 04:43:15;;;;;;;0.73;0.60;;;16.70;80.10;;;;;;5054999;28;20271;-63
2021/07/01 04:45:41;;;;;;;0.55;0.55;;;16.70;80.00;;;;;;5054389;28;20124;-63
2021/07/01 04:48:08;;;;;;;0.45;0.45;;;16.70;79.90;;;;;;5054463;28;20206;-64
2021/07/01 04:50:35;;;;;;;0.50;0.50;;;16.70;79.70;;;;;;5054544;28;20080;-63
2021/07/01 04:53:01;;;;;;;0.40;0.40;;;16.70;79.80;;;;;;5054762;28;20045;-64
2021/07/01 04:55:27;;;;;;;0.40;0.40;;;16.70;79.80;;;;;;5054447;28;20108;-64
2021/07/01 04:57:54;;;;;;;0.30;0.30;;;16.70;79.90;;;;;;5052127;28;20408;-63
2021/07/01 05:00:20;;;;;;;0.30;0.30;;;16.70;80.10;;;;;;5053821;28;20451;-64
2021/07/01 05:02:46;;;;;;;0.20;0.20;;;16.70;80.40;;;;;;5054674;28;20516;-64
2021/07/01 05:05:13;;;;;;;0.30;0.30;;;16.70;80.60;;;;;;5054675;28;20171;-64
2021/07/01 05:07:43;;;;;;;0.30;0.30;;;16.70;80.70;;;;;;5055061;28;20041;-63
2021/07/01 05:10:11;;;;;;;0.20;0.20;;;16.70;80.70;;;;;;5047702;28;20056;-63
2021/07/01 05:12:37;;;;;;;0.17;0.17;;;16.70;80.70;;;;;;5053753;28;20496;-64
2021/07/01 05:15:05;;;;;;;0.15;0.15;;;16.70;80.70;;;;;;5054047;28;20072;-63
2021/07/01 05:17:33;;;;;;;0.10;0.10;;;16.80;80.80;;;;;;5053486;28;20575;-63
2021/07/01 05:19:59;;;;;;;0.10;0.10;;;16.80;80.80;;;;;;5054486;28;20126;-64
2021/07/01 05:22:26;;;;;;;0.15;0.10;;;16.80;80.70;;;;;;5054549;28;20080;-63
2021/07/01 05:24:52;;;;;;;0.35;0.20;;;16.90;80.80;;;;;;5053296;28;20061;-63
2021/07/01 05:27:18;;;;;;;0.20;0.20;;;16.90;80.60;;;;;;5054061;28;20528;-63
2021/07/01 05:29:45;;;;;;;0.38;0.38;;;16.90;80.50;;;;;;5054312;28;20166;-63
2021/07/01 05:32:13;;;;;;;0.20;0.20;;;16.90;80.20;;;;;;5054017;28;20120;-63
2021/07/01 05:34:40;;;;;;;0.30;0.30;;;17.00;80.20;;;;;;5051882;28;20080;-63
2021/07/01 05:37:06;;;;;;;0.25;0.25;;;17.00;79.90;;;;;;5049695;28;20170;-63
2021/07/01 05:39:33;;;;;;;0.10;0.10;;;17.00;79.60;;;;;;5053125;28;20064;-63
2021/07/01 05:41:59;;;;;;;0.10;0.10;;;17.00;79.50;;;;;;5052771;28;20506;-63
2021/07/01 05:44:25;;;;;;;0.10;0.10;;;17.00;79.40;;;;;;5053854;28;20477;-63
2021/07/01 05:46:52;;;;;;;0.10;0.10;;;17.00;79.30;;;;;;5052582;28;20159;-63
2021/07/01 05:49:18;;;;;;;0.10;0.10;;;17.10;79.20;;;;;;5049323;28;20048;-65
2021/07/01 05:51:46;;;;;;;0.10;0.10;;;17.10;79.10;;;;;;5046301;28;20486;-64
2021/07/01 05:56:39;;;;;;;0.10;0.10;;;17.10;78.90;;;;;;5053714;28;20126;-64
2021/07/01 05:59:07;;;;;;;0.10;0.10;;;17.10;78.80;;;;;;5053073;28;20076;-63
2021/07/01 06:01:37;;;;;;;0.00;0.00;;;17.20;78.90;;;;;;5052937;28;20049;-63
2021/07/01 06:04:07;;;;;;;0.10;0.10;;;17.20;78.90;;;;;;5052810;28;20049;-64
2021/07/01 06:06:35;;;;;;;0.00;0.00;;;17.30;79.00;;;;;;5052056;28;20048;-63
2021/07/01 06:09:05;;;;;;;0.20;0.20;;;17.30;79.10;;;;;;5044738;28;20041;-63
2021/07/01 06:11:33;;;;;;;0.20;0.20;;;17.40;79.00;;;;;;5045317;28;20127;-64
2021/07/01 06:14:06;;;;;;;0.10;0.10;;;17.50;79.10;;;;;;5039940;28;20521;-63
2021/07/01 06:16:34;;;;;;;0.10;0.10;;;17.50;79.10;;;;;;5050606;28;20094;-63
2021/07/01 06:19:03;;;;;;;0.10;0.10;;;17.60;79.00;;;;;;5040435;28;20076;-63
2021/07/01 06:21:31;;;;;;;0.10;0.10;;;17.60;79.00;;;;;;5050924;28;20435;-63
2021/07/01 06:23:58;;;;;;;0.10;0.10;;;17.70;79.10;;;;;;5040001;28;20536;-63
2021/07/01 06:26:27;;;;;;;0.10;0.10;;;17.70;79.10;;;;;;5050309;28;20049;-63
2021/07/01 06:28:57;;;;;;;0.10;0.10;;;17.80;79.20;;;;;;5049137;28;20411;-63
2021/07/01 06:31:23;;;;;;;0.10;0.10;;;17.90;79.10;;;;;;5033714;28;20055;-63
2021/07/01 06:33:50;;;;;;;0.10;0.10;;;17.90;79.90;;;;;;5041804;28;20417;-63
2021/07/01 06:36:21;;;;;;;0.00;0.00;;;18.00;78.90;;;;;;5040522;28;20667;-63
2021/07/01 06:38:52;;;;;;;0.00;0.00;;;18.00;78.50;;;;;;5041492;28;20536;-63
2021/07/01 06:41:20;;;;;;;0.00;0.00;;;18.10;78.40;;;;;;5035029;28;20483;-63
2021/07/01 06:43:49;;;;;;;0.00;0.00;;;18.10;78.50;;;;;;5044617;28;20136;-63
2021/07/01 06:46:16;;;;;;;0.00;0.00;;;18.20;78.30;;;;;;5048584;28;20080;-65
2021/07/01 06:48:46;;;;;;;0.00;0.00;;;18.30;78.10;;;;;;5042176;28;20075;-63
2021/07/01 06:51:12;;;;;;;0.00;0.00;;;18.40;78.10;;;;;;5048455;28;20049;-64
2021/07/01 06:53:44;;;;;;;0.10;0.10;;;18.50;78.00;;;;;;5053856;28;20644;-63
2021/07/01 06:56:10;;;;;;;0.05;0.05;;;18.50;77.60;;;;;;5048580;28;20055;-63
2021/07/01 06:58:39;;;;;;;0.00;0.00;;;18.60;77.40;;;;;;5041701;28;20081;-63
2021/07/01 07:01:05;;;;;;;0.10;0.10;;;18.70;77.40;;;;;;5045318;28;20045;-63
2021/07/01 07:03:32;;;;;;;0.00;0.00;;;18.70;77.30;;;;;;5042817;28;20543;-63
2021/07/01 07:06:01;;;;;;;0.00;0.00;;;18.80;77.10;;;;;;5041811;28;20131;-63
2021/07/01 07:08:28;;;;;;;0.10;0.10;;;18.90;76.90;;;;;;5038644;28;20590;-63
2021/07/01 07:10:55;;;;;;;0.10;0.10;;;19.00;76.60;;;;;;5047925;28;20455;-66
2021/07/01 07:13:25;;;;;;;0.05;0.05;;;19.00;76.50;;;;;;5043113;28;20049;-65
2021/07/01 07:15:53;;;;;;;0.00;0.00;;;19.10;76.40;;;;;;5047883;28;20060;-65
2021/07/01 07:18:30;;;;;;;0.10;0.10;;;19.10;76.10;;;;;;5042808;28;20127;-63
2021/07/01 07:21:14;;;;;;;0.10;0.10;;;19.10;76.00;;;;;;5047237;28;20053;-63
2021/07/01 07:23:40;;;;;;;0.00;0.00;;;19.20;76.00;;;;;;5057324;28;20045;-63
2021/07/01 07:26:16;;;;;;;0.00;0.00;;;19.20;76.10;;;;;;5048238;28;20057;-63
2021/07/01 07:28:43;;;;;;;0.00;0.00;;;19.30;77.00;;;;;;5037210;28;20045;-63
2021/07/01 07:31:11;;;;;;;0.00;0.00;;;19.40;75.80;;;;;;5048367;28;20552;-63
2021/07/01 07:33:38;;;;;;;0.00;0.00;;;19.50;75.70;;;;;;5048158;28;20048;-63
2021/07/01 07:36:05;;;;;;;0.10;0.10;;;19.60;75.50;;;;;;5047645;28;20466;-63
2021/07/01 07:38:31;;;;;;;0.10;0.10;;;19.70;75.20;;;;;;5043803;28;20053;-63
2021/07/01 07:40:58;;;;;;;0.08;0.08;;;19.90;74.90;;;;;;5048196;28;20061;-63
2021/07/01 07:43:27;;;;;;;0.10;0.10;;;20.00;74.60;;;;;;5043036;28;20057;-63
2021/07/01 07:45:55;;;;;;;0.10;0.10;;;20.10;74.30;;;;;;5048132;28;20083;-63
2021/07/01 07:48:22;;;;;;;0.10;0.10;;;20.20;74.30;;;;;;5042140;28;20061;-63
2021/07/01 07:50:53;;;;;;;0.00;0.00;;;20.30;73.30;;;;;;5047995;28;20049;-63
2021/07/01 07:53:25;;;;;;;0.10;0.10;;;20.40;72.90;;;;;;5052469;28;20048;-63
2021/07/01 07:56:06;;;;;;;0.10;0.10;;;20.60;72.50;;;;;;5048115;28;20121;-63
2021/07/01 07:58:37;;;;;;;0.10;0.10;;;20.70;71.90;;;;;;5040389;28;20057;-63
2021/07/01 08:01:04;;;;;;;0.15;0.15;;;20.90;70.80;;;;;;5050185;28;20053;-63
2021/07/01 08:03:37;;;;;;;0.40;0.20;;;20.90;69.10;;;;;;5044148;28;20049;-63
2021/07/01 08:06:07;;;;;;;0.20;0.20;;;20.90;67.90;;;;;;5051917;28;20115;-63
2021/07/01 08:08:36;;;;;;;0.10;0.10;;;20.90;68.70;;;;;;5043268;28;20064;-63
2021/07/01 08:11:05;;;;;;;0.00;0.00;;;21.00;69.10;;;;;;5048446;28;20128;-63
2021/07/01 08:13:33;;;;;;;0.10;0.10;;;21.10;68.50;;;;;;5041431;28;20466;-63
2021/07/01 08:15:59;;;;;;;0.10;0.00;;;21.20;68.60;;;;;;5051727;28;20045;-63
2021/07/01 08:18:43;;;;;;;0.10;0.10;;;21.40;68.60;;;;;;5042884;28;20128;-63
2021/07/01 08:21:14;;;;;;;0.10;0.10;;;21.60;67.70;;;;;;5042808;28;20132;-63
2021/07/01 08:23:43;;;;;;;0.00;0.00;;;21.70;64.50;;;;;;5040288;28;20091;-63
2021/07/01 08:26:11;;;;;;;0.00;0.00;;;21.70;65.00;;;;;;5051734;28;20135;-63
2021/07/01 08:28:38;;;;;;;0.10;0.10;;;21.80;65.70;;;;;;5040612;28;20172;-63
2021/07/01 08:31:11;;;;;;;0.32;0.10;;;22.00;65.30;;;;;;5045921;28;20155;-63
2021/07/01 08:33:40;;;;;;;0.03;0.03;;;22.20;64.50;;;;;;5039683;28;20488;-63
2021/07/01 08:36:12;;;;;;;0.10;0.10;;;22.30;64.00;;;;;;5051417;28;20258;-63
2021/07/01 08:38:39;;;;;;;0.00;0.00;;;22.50;63.50;;;;;;5048462;28;20135;-63
2021/07/01 08:41:32;;;;;;;0.00;0.00;;;22.70;64.20;;;;;;5057318;28;20059;-63
2021/07/01 08:44:01;;;;;;;0.10;0.10;;;22.90;62.50;;;;;;5036011;28;20144;-63
2021/07/01 08:46:39;;;;;;;0.10;0.10;;;23.00;61.20;;;;;;5051359;28;20558;-63
2021/07/01 08:49:08;;;;;;;0.08;0.08;;;23.10;61.30;;;;;;5046699;28;20133;-63
2021/07/01 08:51:46;;;;;;;0.10;0.10;;;23.20;61.40;;;;;;5051344;28;20163;-63
2021/07/01 08:54:31;;;;;;;0.00;0.00;;;23.40;61.20;;;;;;5046726;28;20049;-63
2021/07/01 08:56:58;;;;;;;0.10;0.10;;;23.50;60.90;;;;;;5050317;28;20120;-63
2021/07/01 08:59:26;;;;;;;0.00;0.00;;;23.60;59.80;;;;;;5032796;28;20049;-63
2021/07/01 09:02:02;;;;;;;0.00;0.00;;;23.60;59.30;;;;;;5049430;28;20103;-63
2021/07/01 09:04:30;;;;;;;0.10;0.10;;;23.70;59.60;;;;;;5032291;28;20049;-64
2021/07/01 09:07:02;;;;;;;0.00;0.00;;;23.90;59.00;;;;;;5048744;28;20049;-63
2021/07/01 09:09:36;;;;;;;0.05;0.05;;;24.00;58.90;;;;;;5044751;28;20045;-63
2021/07/01 09:12:07;;;;;;;0.00;0.00;;;24.20;57.20;;;;;;5046802;28;20491;-63
2021/07/01 09:14:36;;;;;;;0.10;0.10;;;24.30;57.30;;;;;;5032823;28;20115;-63
2021/07/01 09:17:09;;;;;;;0.10;0.10;;;24.40;55.40;;;;;;5047726;28;20053;-63
2021/07/01 09:19:37;;;;;;;0.10;0.10;;;24.40;55.30;;;;;;5046997;28;20451;-63
2021/07/01 09:22:04;;;;;;;0.10;0.10;;;24.40;54.70;;;;;;5033974;28;20531;-63
2021/07/01 09:24:35;;;;;;;0.15;0.05;;;24.40;55.10;;;;;;5056529;28;20497;-65
2021/07/01 09:27:04;;;;;;;0.08;0.08;;;24.40;55.70;;;;;;5047893;28;20875;-67
2021/07/01 09:29:31;;;;;;;0.10;0.10;;;24.40;56.30;;;;;;5041691;28;20864;-64
2021/07/01 09:31:59;;;;;;;0.08;0.08;;;24.30;56.80;;;;;;5049908;28;20178;-63
2021/07/01 09:34:27;;;;;;;0.10;0.10;;;24.30;57.10;;;;;;5050246;28;20132;-63
2021/07/01 09:36:56;;;;;;;0.10;0.10;;;24.30;56.30;;;;;;5050133;28;20049;-63
2021/07/01 09:39:24;;;;;;;0.00;0.00;;;24.20;56.10;;;;;;5050150;28;20052;-64
2021/07/01 09:41:51;;;;;;;0.15;0.15;;;24.00;56.40;;;;;;5049392;28;20271;-63
2021/07/01 09:44:18;;;;;;;0.10;0.10;;;24.00;56.40;;;;;;5037453;28;20135;-64
2021/07/01 09:46:47;;;;;;;0.10;0.10;;;24.10;56.20;;;;;;5049542;28;20851;-63
2021/07/01 09:49:20;;;;;;;0.10;0.10;;;24.30;56.20;;;;;;5046700;28;20143;-64
2021/07/01 09:51:52;;;;;;;0.00;0.00;;;24.40;55.70;;;;;;5049567;28;20097;-63
2021/07/01 09:54:22;;;;;;;0.00;0.00;;;24.50;56.40;;;;;;5052892;28;20527;-64
2021/07/01 09:56:52;;;;;;;0.10;0.10;;;24.70;55.80;;;;;;5049706;28;20130;-64
2021/07/01 09:59:29;;;;;;;0.00;0.00;;;24.80;55.30;;;;;;5045736;28;20170;-64
2021/07/01 10:02:15;;;;;;;0.00;0.00;;;24.90;55.10;;;;;;5048167;28;20045;-64
2021/07/01 10:04:45;;;;;;;0.00;0.00;;;24.80;54.70;;;;;;5048001;28;20049;-64
2021/07/01 10:07:13;;;;;;;0.00;0.00;;;24.70;55.30;;;;;;5046032;28;20079;-64
2021/07/01 10:09:40;;;;;;;0.10;0.10;;;24.50;55.50;;;;;;5044226;28;20056;-64
2021/07/01 10:12:14;;;;;;;0.00;0.00;;;24.40;56.00;;;;;;5040611;28;20045;-64
2021/07/01 10:14:40;;;;;;;0.10;0.10;;;24.20;56.30;;;;;;5045233;28;20069;-64
2021/07/01 10:17:11;;;;;;;0.00;0.00;;;24.10;56.50;;;;;;5046647;28;20129;-63
2021/07/01 10:19:38;;;;;;;0.08;0.08;;;24.00;56.70;;;;;;5041577;28;20057;-63
2021/07/01 10:22:06;;;;;;;0.00;0.00;;;24.00;56.90;;;;;;5046441;28;20183;-64
2021/07/01 10:24:46;;;;;;;0.00;0.00;;;24.00;56.80;;;;;;5036487;28;20163;-64
2021/07/01 10:27:25;;;;;;;0.10;0.10;;;24.10;56.00;;;;;;5049224;28;20094;-64
2021/07/01 10:29:54;;;;;;;0.00;0.00;;;24.30;55.70;;;;;;5046724;28;20041;-64
2021/07/01 10:32:44;;;;;;;0.10;0.10;;;24.40;56.70;;;;;;5041816;28;20057;-65
2021/07/01 10:35:22;;;;;;;;;;;24.60;56.70;;;;;;5042618;28;20053;-64
2021/07/01 10:38:01;;;;;;;0.10;0.10;;;24.70;55.50;;;;;;5046328;28;20023;-64
2021/07/01 10:40:28;;;;;;;0.22;0.20;;;24.80;55.80;;;;;;5049025;28;20057;-65
2021/07/01 10:42:55;;;;;;;0.32;0.22;;;24.90;55.30;;;;;;5048831;28;20048;-65
2021/07/01 10:45:23;;;;;;;0.00;0.00;;;25.00;54.60;;;;;;5048932;28;20048;-65
2021/07/01 10:47:50;;;;;;;0.00;0.00;;;25.00;54.50;;;;;;5048292;28;20493;-65
2021/07/01 10:50:23;;;;;;;0.03;0.03;;;25.10;54.10;;;;;;5048882;28;20099;-65
2021/07/01 10:52:49;;;;;;;0.10;0.10;;;25.10;54.00;;;;;;5046729;28;20127;-65
2021/07/01 10:55:16;;;;;;;0.20;0.10;;;25.10;53.90;;;;;;5030629;28;20140;-65
2021/07/01 10:57:59;;;;;;;0.10;0.10;;;25.00;53.80;;;;;;5045769;28;20129;-65
2021/07/01 11:00:43;;;;;;;0.10;0.10;;;24.90;54.00;;;;;;5048997;28;20052;-64
2021/07/01 11:03:20;;;;;;;0.00;0.00;;;24.70;54.30;;;;;;5046103;28;20702;-65
2021/07/01 11:05:47;;;;;;;0.00;0.00;;;24.70;54.40;;;;;;5048625;28;20139;-65
2021/07/01 11:08:34;;;;;;;0.20;0.10;;;24.60;54.10;;;;;;5048305;28;20137;-65
2021/07/01 11:11:03;;;;;;;0.00;0.00;;;24.60;54.80;;;;;;5045642;28;20050;-67
2021/07/01 11:13:31;;;;;;;0.00;0.00;;;24.50;54.80;;;;;;5044374;28;20121;-65
2021/07/01 11:16:39;;;;;;;0.10;0.10;;;24.50;54.90;;;;;;5048377;28;20186;-65
2021/07/01 11:19:07;;;;;;;0.00;0.00;;;24.40;54.70;;;;;;5040481;28;20130;-64
2021/07/01 11:21:35;;;;;;;0.28;0.10;;;24.30;55.00;;;;;;5048436;28;20132;-65
2021/07/01 11:24:18;;;;;;;0.10;0.10;;;24.30;55.30;;;;;;5042622;28;20056;-64
2021/07/01 11:26:51;;;;;;;0.00;0.00;;;24.40;55.90;;;;;;5048551;28;20187;-65
2021/07/01 11:29:42;;;;;;;0.10;0.10;;;24.40;55.00;;;;;;5041618;28;20052;-64
2021/07/01 11:32:22;;;;;;;0.30;0.30;;;24.60;55.30;;;;;;5046395;28;20052;-64
2021/07/01 11:34:50;;;;;;;0.20;0.20;;;24.70;54.80;;;;;;5043326;28;20531;-64
2021/07/01 11:37:38;;;;;;;0.10;0.10;;;24.80;54.20;;;;;;5043026;28;20045;-64
2021/07/01 11:40:13;;;;;;;0.03;0.03;;;25.00;54.10;;;;;;5048410;28;20136;-65
2021/07/01 11:42:42;;;;;;;0.10;0.10;;;25.00;51.90;;;;;;5047385;28;20123;-65
2021/07/01 11:45:10;;;;;;;0.10;0.10;;;25.00;53.90;;;;;;5038073;28;20175;-64
2021/07/01 11:47:37;;;;;;;0.00;0.00;;;24.90;52.80;;;;;;5044788;28;20076;-65
2021/07/01 11:50:05;;;;;;;0.30;0.10;;;25.00;52.80;;;;;;5040251;28;20041;-65
2021/07/01 11:52:32;;;;;;;0.20;0.20;;;24.90;52.70;;;;;;5043214;28;20772;-65
2021/07/01 11:54:59;;;;;;;0.10;0.10;;;24.90;53.30;;;;;;5048169;28;20055;-64
2021/07/01 11:57:28;;;;;;;0.20;0.20;;;24.80;52.80;;;;;;5044907;28;20049;-65
2021/07/01 11:59:55;;;;;;;0.10;0.10;;;24.80;54.30;;;;;;5041630;28;20595;-65
2021/07/01 12:02:22;;;;;;;0.00;0.00;;;24.70;53.90;;;;;;5038045;28;20122;-65
2021/07/01 12:04:49;;;;;;;0.00;0.00;;;24.60;53.70;;;;;;5044680;28;20128;-65
2021/07/01 12:07:28;;;;;;;0.20;0.20;;;24.60;53.70;;;;;;5038642;28;20049;-65
2021/07/01 12:09:56;;;;;;;0.15;0.15;;;24.50;54.30;;;;;;5043715;28;20136;-65
2021/07/01 12:12:32;;;;;;;0.00;0.00;;;24.40;54.50;;;;;;5044320;28;20049;-65
2021/07/01 12:15:10;;;;;;;0.00;0.00;;;24.40;53.90;;;;;;5045308;28;20136;-65
2021/07/01 12:17:54;;;;;;;0.00;0.00;;;24.20;54.40;;;;;;5044092;28;20037;-65
2021/07/01 12:20:39;;;;;;;0.10;0.10;;;24.20;54.80;;;;;;5044532;28;20513;-64
2021/07/01 12:23:26;;;;;;;0.00;0.00;;;24.10;54.50;;;;;;5046916;28;20082;-65
2021/07/01 12:25:58;;;;;;;0.00;0.00;;;24.10;54.60;;;;;;5047763;28;20080;-65
2021/07/01 12:28:27;;;;;;;0.08;0.08;;;24.10;55.10;;;;;;5040182;28;20419;-64
2021/07/01 12:30:58;;;;;;;0.15;0.10;;;24.10;55.80;;;;;;5047755;28;20056;-64
2021/07/01 12:33:53;;;;;;;0.00;0.00;;;24.10;56.30;;;;;;5046542;28;20106;-65
2021/07/01 12:36:20;;;;;;;0.00;0.00;;;24.10;56.30;;;;;;5047873;28;20523;-65
2021/07/01 12:39:23;;;;;;;0.00;0.00;;;24.10;55.90;;;;;;5057907;28;20063;-64
2021/07/01 12:41:52;;;;;;;0.10;0.10;;;24.00;56.40;;;;;;5044022;28;20106;-65
2021/07/01 12:44:21;;;;;;;0.00;0.00;;;24.00;56.70;;;;;;5042745;28;20053;-64
2021/07/01 12:46:48;;;;;;;0.08;0.08;;;24.00;56.00;;;;;;5045851;28;20218;-65
2021/07/01 12:49:25;;;;;;;0.10;0.10;;;24.00;56.10;;;;;;5049472;28;20091;-65
2021/07/01 12:51:53;;;;;;;0.10;0.10;;;24.00;56.30;;;;;;5032551;28;20053;-64
2021/07/01 12:54:25;;;;;;;0.00;0.00;;;24.00;56.30;;;;;;5050997;28;20067;-64
2021/07/01 12:56:57;;;;;;;0.08;0.08;;;24.00;55.90;;;;;;5051339;28;20052;-65
2021/07/01 12:59:30;;;;;;;0.10;0.10;;;24.00;55.50;;;;;;5050052;28;20049;-65
2021/07/01 13:02:23;;;;;;;0.15;0.05;;;24.10;55.30;;;;;;5046038;28;20053;-64